createdAt,value
2022-08-17T00:02:26.501Z,58.13
2022-08-17T00:07:28.575Z,58.01
2022-08-17T00:12:42.055Z,58.15
2022-08-17T00:17:51.720Z,57.80
2022-08-17T00:23:07.096Z,58.27
2022-08-17T00:28:08.668Z,56.84
2022-08-17T00:33:17.021Z,57.71
2022-08-17T00:38:18.730Z,57.74
2022-08-17T00:43:32.094Z,57.51
2022-08-17T00:48:33.623Z,57.55
2022-08-17T00:53:37.075Z,57.69
2022-08-17T00:58:38.610Z,57.68
2022-08-17T01:03:40.144Z,57.48
2022-08-17T01:08:41.668Z,57.94
2022-08-17T01:13:43.361Z,57.97
2022-08-17T01:18:45.947Z,58.09
2022-08-17T01:23:47.454Z,57.96
2022-08-17T01:28:54.767Z,58.39
2022-08-17T01:33:59.451Z,58.00
2022-08-17T01:39:05.271Z,58.31
2022-08-17T01:44:07.400Z,57.96
2022-08-17T01:49:10.721Z,58.00
2022-08-17T01:54:13.772Z,58.12
2022-08-17T01:59:16.436Z,58.34
2022-08-17T02:04:17.999Z,57.92
2022-08-17T02:09:20.281Z,58.28
2022-08-17T02:14:25.012Z,58.48
2022-08-17T02:19:26.537Z,58.78
2022-08-17T02:24:59.608Z,59.03
2022-08-17T02:29:52.551Z,59.76
2022-08-17T02:34:54.082Z,59.66
2022-08-17T02:39:58.802Z,60.04
2022-08-17T02:45:01.371Z,60.45
2022-08-17T02:50:03.641Z,60.99
2022-08-17T02:55:19.267Z,60.68
2022-08-17T03:00:23.988Z,60.28
2022-08-17T03:05:26.614Z,60.44
2022-08-17T03:10:29.625Z,60.28
2022-08-17T03:15:32.300Z,60.81
2022-08-17T03:20:34.036Z,60.79
2022-08-17T03:25:42.692Z,60.36
2022-08-17T03:30:45.610Z,61.18
2022-08-17T03:35:47.294Z,60.48
2022-08-17T03:40:57.765Z,61.92
2022-08-17T03:46:35.227Z,61.39
2022-08-17T03:51:55.871Z,60.59
2022-08-17T03:57:06.590Z,60.96
2022-08-17T04:02:11.055Z,61.11
2022-08-17T04:07:12.662Z,60.49
2022-08-17T04:12:15.826Z,60.10
2022-08-17T04:17:17.344Z,60.14
2022-08-17T04:22:32.945Z,60.35
2022-08-17T04:27:35.909Z,60.05
2022-08-17T04:33:06.243Z,59.90
2022-08-17T04:38:10.460Z,59.93
2022-08-17T04:43:14.250Z,60.02
2022-08-17T04:48:15.776Z,59.83
2022-08-17T04:53:17.924Z,59.44
2022-08-17T04:58:19.643Z,60.12
2022-08-17T05:03:21.171Z,59.93
2022-08-17T05:08:22.696Z,60.66
2022-08-17T05:13:25.402Z,60.56
2022-08-17T05:18:27.635Z,60.24
2022-08-17T05:23:41.902Z,60.21
2022-08-17T05:28:44.768Z,60.84
2022-08-17T05:33:47.676Z,60.52
2022-08-17T05:38:49.192Z,60.91
2022-08-17T05:43:54.359Z,60.34
2022-08-17T05:49:00.899Z,60.39
2022-08-17T05:54:39.805Z,60.63
2022-08-17T05:59:50.364Z,60.73
2022-08-17T06:05:25.298Z,60.33
2022-08-17T06:10:39.930Z,60.54
2022-08-17T06:16:02.195Z,60.67
2022-08-17T06:21:04.678Z,61.01
2022-08-17T06:26:11.563Z,60.44
2022-08-17T06:31:34.688Z,60.51
2022-08-17T06:37:09.249Z,60.72
2022-08-17T06:42:54.007Z,60.92
2022-08-17T06:48:02.651Z,60.99
2022-08-17T06:53:40.055Z,60.18
2022-08-17T06:58:43.325Z,59.96
2022-08-17T07:03:54.340Z,59.21
2022-08-17T07:09:08.250Z,60.24
2022-08-17T07:14:20.212Z,60.73
2022-08-17T07:19:23.665Z,60.24
2022-08-17T07:24:30.802Z,60.79
2022-08-17T07:29:33.735Z,61.47
2022-08-17T07:35:02.973Z,60.55
2022-08-17T07:40:27.078Z,60.60
2022-08-17T07:45:47.046Z,60.70
2022-08-17T07:50:50.836Z,60.48
2022-08-17T07:55:53.238Z,60.44
2022-08-17T08:01:09.366Z,60.00
2022-08-17T08:06:23.577Z,61.59
2022-08-17T08:11:33.542Z,61.91
2022-08-17T08:16:35.228Z,60.88
2022-08-17T08:21:49.239Z,60.06
2022-08-17T08:26:56.836Z,59.41
2022-08-17T08:32:07.618Z,58.81
2022-08-17T08:37:47.603Z,58.07
2022-08-17T08:43:02.293Z,58.29
2022-08-17T08:48:46.276Z,58.52
2022-08-17T08:53:49.359Z,57.93
2022-08-17T08:59:07.643Z,56.91
2022-08-17T09:05:10.659Z,56.83
2022-08-17T09:10:09.217Z,57.28
2022-08-17T09:15:29.275Z,57.57
2022-08-17T09:20:35.814Z,56.73
2022-08-17T09:25:49.878Z,57.29
2022-08-17T09:30:55.297Z,57.15
2022-08-17T09:36:02.779Z,56.48
2022-08-17T09:41:18.211Z,56.92
2022-08-17T09:46:24.804Z,58.18
2022-08-17T09:51:40.125Z,56.88
2022-08-17T09:57:29.906Z,55.30
2022-08-17T10:02:53.499Z,54.95
2022-08-17T10:08:02.441Z,55.37
2022-08-17T10:13:16.323Z,55.23
2022-08-17T10:18:42.242Z,54.77
2022-08-17T10:24:02.331Z,54.79
2022-08-17T10:29:12.414Z,53.93
2022-08-17T10:34:28.714Z,57.17
2022-08-17T10:39:52.483Z,57.17
2022-08-17T10:45:26.792Z,56.82
2022-08-17T10:50:47.401Z,55.84
2022-08-17T10:56:13.723Z,55.36
2022-08-17T11:01:16.047Z,54.34
2022-08-17T11:06:21.491Z,53.68
2022-08-17T11:11:47.268Z,54.45
2022-08-17T11:17:11.340Z,54.64
2022-08-17T11:22:33.372Z,55.35
2022-08-17T11:27:35.471Z,55.21
2022-08-17T11:32:47.096Z,55.00
2022-08-17T11:38:17.390Z,55.41
2022-08-17T11:43:38.351Z,55.90
2022-08-17T11:49:30.526Z,56.56
2022-08-17T11:54:47.571Z,56.82
2022-08-17T11:59:51.763Z,58.28
2022-08-17T12:05:12.126Z,58.04
2022-08-17T12:10:17.145Z,58.29
2022-08-17T12:15:21.292Z,58.60
2022-08-17T12:20:33.557Z,58.51
2022-08-17T12:25:47.693Z,57.86
2022-08-17T12:30:50.052Z,58.05
2022-08-17T12:36:03.086Z,58.67
2022-08-17T12:41:24.887Z,57.65
2022-08-17T12:46:26.482Z,57.25
2022-08-17T12:51:29.208Z,57.22
2022-08-17T12:56:31.327Z,57.52
2022-08-17T13:01:34.956Z,57.83
2022-08-17T13:06:37.305Z,57.41
2022-08-17T13:11:56.244Z,58.01
2022-08-17T13:16:59.837Z,56.62
2022-08-17T13:22:01.575Z,56.28
2022-08-17T13:27:10.205Z,55.74
2022-08-17T13:32:13.736Z,55.80
2022-08-17T13:37:28.992Z,56.05
2022-08-17T13:42:52.058Z,55.80
2022-08-17T13:48:25.440Z,56.70
2022-08-17T13:53:32.773Z,56.26
2022-08-17T13:58:37.133Z,55.69
2022-08-17T14:03:38.657Z,55.42
2022-08-17T14:08:43.657Z,55.18
2022-08-17T14:13:46.282Z,56.56
2022-08-17T14:18:56.023Z,56.50
2022-08-17T14:23:58.863Z,56.94
2022-08-17T14:29:00.587Z,56.59
2022-08-17T14:34:02.121Z,56.75
2022-08-17T14:39:04.258Z,57.46
2022-08-17T14:44:05.933Z,57.99
2022-08-17T14:49:10.972Z,59.69
2022-08-17T14:54:33.524Z,59.66
2022-08-17T14:59:35.590Z,57.37
2022-08-17T15:04:40.797Z,57.17
2022-08-17T15:09:45.559Z,56.39
2022-08-17T15:14:47.090Z,56.62
2022-08-17T15:19:48.628Z,56.00
2022-08-17T15:24:50.148Z,56.45
2022-08-17T15:29:51.718Z,57.39
2022-08-17T15:34:57.053Z,57.76
2022-08-17T15:40:00.690Z,57.10
2022-08-17T15:45:10.754Z,56.67
2022-08-17T15:50:12.296Z,57.05
2022-08-17T15:55:14.724Z,56.96
2022-08-17T16:00:17.280Z,58.17
2022-08-17T16:05:21.652Z,58.42
2022-08-17T16:10:35.658Z,58.31
2022-08-17T16:15:38.065Z,58.94
2022-08-17T16:20:39.586Z,59.36
2022-08-17T16:25:52.884Z,60.48
2022-08-17T16:30:55.719Z,62.18
2022-08-17T16:35:57.234Z,60.01
2022-08-17T16:40:58.740Z,61.01
2022-08-17T16:46:00.853Z,60.41
2022-08-17T16:51:04.505Z,59.60
2022-08-17T16:56:07.186Z,59.20
2022-08-17T17:01:08.752Z,59.48
2022-08-17T17:06:27.767Z,62.73
2022-08-17T17:11:34.094Z,61.77
2022-08-17T17:16:58.659Z,62.25
2022-08-17T17:22:03.790Z,62.02
2022-08-17T17:27:26.506Z,61.56
2022-08-17T17:32:37.984Z,61.11
2022-08-17T17:37:39.511Z,62.09
2022-08-17T17:42:41.271Z,62.00
2022-08-17T17:47:42.854Z,61.86
2022-08-17T17:52:56.063Z,62.05
2022-08-17T17:58:13.369Z,63.18
2022-08-17T18:03:22.334Z,62.66
2022-08-17T18:08:33.961Z,62.42
2022-08-17T18:14:14.802Z,63.07
2022-08-17T18:19:20.341Z,62.45
2022-08-17T18:24:32.970Z,61.99
2022-08-17T18:29:39.905Z,62.10
2022-08-17T18:34:47.922Z,61.43
2022-08-17T18:39:50.208Z,61.84
2022-08-17T18:44:54.967Z,61.78
2022-08-17T18:49:58.757Z,62.47
2022-08-17T18:55:00.113Z,62.22
2022-08-17T19:00:02.043Z,63.23
2022-08-17T19:05:32.723Z,63.69
2022-08-17T19:10:46.304Z,63.41
2022-08-17T19:16:18.022Z,63.00
2022-08-17T19:21:30.769Z,61.67
2022-08-17T19:26:54.451Z,63.01
2022-08-17T19:31:58.438Z,64.85
2022-08-17T19:37:11.394Z,64.84
2022-08-17T19:42:31.056Z,63.98
2022-08-17T19:48:03.335Z,65.89
2022-08-17T19:53:13.524Z,66.84
2022-08-17T19:58:26.824Z,67.13
2022-08-17T20:03:35.256Z,67.69
2022-08-17T20:08:39.165Z,67.21
2022-08-17T20:13:49.684Z,66.39
2022-08-17T20:19:04.830Z,65.85
2022-08-17T20:24:35.843Z,66.65
2022-08-17T20:29:52.177Z,67.63
2022-08-17T20:35:16.769Z,65.21
2022-08-17T20:40:21.340Z,65.95
2022-08-17T20:45:25.041Z,66.32
2022-08-17T20:50:38.533Z,66.03
2022-08-17T20:55:52.516Z,64.72
2022-08-17T21:00:57.378Z,65.72
2022-08-17T21:06:16.848Z,64.49
2022-08-17T21:11:56.778Z,64.43
2022-08-17T21:17:01.320Z,66.29
2022-08-17T21:22:53.827Z,65.14
2022-08-17T21:28:34.320Z,71.26
2022-08-17T21:33:37.854Z,73.25
2022-08-17T21:38:41.742Z,71.27
2022-08-17T21:43:46.466Z,70.98
2022-08-17T21:48:50.465Z,71.00
2022-08-17T21:54:00.499Z,70.09
2022-08-17T21:59:27.160Z,70.54
2022-08-17T22:04:29.020Z,69.79
2022-08-17T22:09:49.039Z,69.31
2022-08-17T22:14:57.932Z,69.51
2022-08-17T22:20:18.458Z,69.10
2022-08-17T22:25:20.635Z,69.23
2022-08-17T22:30:26.289Z,69.12
2022-08-17T22:35:33.300Z,69.55
2022-08-17T22:40:34.810Z,69.33
2022-08-17T22:45:40.386Z,68.58
2022-08-17T22:50:41.924Z,68.38
2022-08-17T22:56:14.025Z,68.38
2022-08-17T23:01:32.581Z,69.10
2022-08-17T23:06:35.072Z,69.70
2022-08-17T23:11:48.703Z,70.01
2022-08-17T23:16:51.230Z,69.26
2022-08-17T23:21:55.223Z,68.48
2022-08-17T23:26:59.515Z,69.20
2022-08-17T23:32:01.429Z,68.11
2022-08-17T23:37:04.262Z,68.17
2022-08-17T23:42:08.090Z,67.91
2022-08-17T23:47:10.362Z,68.25
2022-08-17T23:52:15.011Z,67.46
2022-08-17T23:57:19.602Z,69.44
